Staunton Park, Virginia
Current Conditions -  °F | °C
As of 10:15 AM on Wednesday 22 Oct 2014 (Local Time) from KW13 Reporting Station
Overcast Overcast  
Wind Chill: 52°   Ceiling: 2900
Heat Index: 52°   Visibility: 10mi
Dew Point: 42°   Wind: 10mph
Humidity: 67%   Direction: 340°NNW
Pressure: 30.01"   Gusts: NA
Location:  38.1221°N, 79.0825°W
Report Text: KW13 221415Z AUTO 34009KT 10SM BKN029 OVC038 11/05 A3001 RMK AO1 T01130054
Loading
Personal Weather Stations






























Interactive Weather Map
Tropical Storm Tracking
New forecast layout! Learn more

10-Day Weather Forecast

Advertisements
Track Severe Weather on mobile